Flight Track Log - Related Links

Times and Time Zones

All times are in EDT time to prevent confusion due to time zone crossing. See the ASQ1352 flight status page for this flight to view local times or setup timezone preferences in your user account.


Time Position Orientation Groundspeed Altitude Reporting Facility
EDT Latitude Longitude Course Direction KTS MPH feet Rate Location/Type
Mon 10:33:43 AM 39.7000 -86.3000 218° Southwest 138 159 1,400  Level Indianapolis TRACON
Mon 10:34:13 AM 39.6833 -86.3167 218° Southwest 147 169 2,900 2,692 Climbing Indianapolis TRACON
Mon 10:35:01 AM 39.6667 -86.2833 123° Southeast 225 259 4,900 2,143 Climbing Indianapolis TRACON
Mon 10:36:05 AM 39.6731 -86.1958 85° East 251 289 6,900 2,667 Climbing Indianapolis Center
Mon 10:37:07 AM 39.6847 -86.1000 81° East 272 313 10,500 2,565 Climbing Indianapolis Center
Mon 10:38:09 AM 39.7103 -85.9933 73° East 307 353 12,200 1,728 Climbing Indianapolis Center
Mon 10:39:12 AM 39.7442 -85.8386 74° East 364 419 14,100 1,536 Climbing Indianapolis Center
Mon 10:40:14 AM 39.7731 -85.6992 75° East 392 451 15,400 1,403 Climbing Indianapolis Center
Mon 10:41:16 AM 39.8028 -85.5547 75° East 409 471 17,000 1,355 Climbing Indianapolis Center
Mon 10:42:18 AM 39.8336 -85.4042 75° East 427 491 18,200 1,258 Climbing Indianapolis Center
Mon 10:43:20 AM 39.8653 -85.2519 75° East 433 498 19,600 1,355 Climbing Indianapolis Center
Mon 10:44:22 AM 39.8978 -85.0969 75° East 442 509 21,000 1,355 Climbing Indianapolis Center
Mon 10:45:24 AM 39.9350 -84.9067 76° East 448 516 22,400 968 Climbing Indianapolis Center
Mon 10:46:26 AM 39.9642 -84.7614 75° East 451 519 23,000 290 Climbing Indianapolis Center
Mon 10:47:28 AM 39.9969 -84.5964 75° East 465 535 23,000  Level Indianapolis Center
Mon 10:48:30 AM 40.0358 -84.3983 76° East 467 537 23,000  Level Indianapolis Center
Mon 10:49:32 AM 40.0683 -84.2347 75° East 467 537 23,000  Level Indianapolis Center
Mon 10:50:34 AM 40.1011 -84.0694 75° East 467 537 23,000  Level Indianapolis Center
Mon 10:51:36 AM 40.1328 -83.9014 76° East 469 540 23,000  Level Indianapolis Center
Mon 10:52:38 AM 40.1664 -83.7331 75° East 472 543 23,000  Level Indianapolis Center
Mon 10:53:40 AM 40.1969 -83.5647 77° East 473 544 23,000  Level Indianapolis Center
Mon 10:54:43 AM 40.2431 -83.4036 69° East 473 544 23,000  Level Indianapolis Center
Mon 10:55:45 AM 40.3311 -83.2850 46° Northeast 457 526 23,000 -968 Level Indianapolis Center
Mon 10:56:47 AM 40.4378 -83.1475 44° Northeast 450 518 21,000 -1,839 Descending Indianapolis Center
Mon 10:57:49 AM 40.5167 -83.0481 44° Northeast 435 501 19,200 -1,403 Descending Indianapolis Center
Mon 10:58:51 AM 40.6167 -82.9181 45° Northeast 432 497 18,100 -2,032 Descending Indianapolis Center
Mon 10:59:53 AM 40.6986 -82.8133 44° Northeast 414 476 15,000 -2,758 Descending Indianapolis Center
Mon 11:00:55 AM 40.7736 -82.7156 45° Northeast 386 444 12,400 -2,226 Descending Indianapolis Center
Mon 11:01:57 AM 40.8475 -82.6197 44° Northeast 372 428 10,400 -1,426 Descending Indianapolis Center
Mon 11:02:36 AM 40.8947 -82.5564 45° Northeast 358 412 10,000 -369 Descending Cleveland Center
Mon 11:03:02 AM 40.9183 -82.5261 44° Northeast 363 418 10,000  Level Cleveland Center
Mon 11:03:36 AM 40.9647 -82.4658 44° Northeast 354 407 10,000  Level Cleveland Center
Mon 11:04:04 AM 40.9883 -82.4331 46° Northeast 358 412 10,000  Level Cleveland Center
Mon 11:04:37 AM 41.0347 -82.3722 45° Northeast 353 406 10,000  Level Cleveland Center
Mon 11:05:06 AM 41.0706 -82.3242 45° Northeast 356 410 10,000  Level Cleveland Center
Mon 11:05:38 AM 41.1094 -82.2739 44° Northeast 353 406 10,000  Level Cleveland Center
Mon 11:06:08 AM 41.1400 -82.2311 47° Northeast 355 409 10,000  Level Cleveland Center
Mon 11:06:39 AM 41.1722 -82.1900 44° Northeast 316 364 10,000 -387 Level Cleveland Center
Mon 11:07:10 AM 41.1986 -82.1533 46° Northeast 290 334 9,600 -885 Descending Cleveland Center
Mon 11:07:40 AM 41.2278 -82.1158 44° Northeast 262 302 9,100 -968 Descending Cleveland Center
Mon 11:08:12 AM 41.2522 -82.0811 47° Northeast 276 318 8,600 -1,000 Descending Cleveland Center
Mon 11:08:40 AM 41.2783 -82.0461 45° Northeast 264 304 8,100 -885 Descending Cleveland Center
Mon 11:09:13 AM 41.2942 -82.0019 64° Northeast 271 312 7,700 -885 Descending Cleveland Center
Mon 11:09:41 AM 41.3019 -81.9525 78° East 277 319 7,200 -677 Descending Cleveland Center
Mon 11:10:15 AM 41.3117 -81.9014 76° East 272 313 7,000 -197 Descending Cleveland Center
Mon 11:10:42 AM 41.3281 -81.8511 67° East 272 313 7,000  Level Cleveland Center
Mon 11:11:17 AM 41.3481 -81.8131 55° Northeast 268 308 7,000  Level Cleveland Center
Mon 11:11:42 AM 41.3669 -81.7711 59° Northeast 260 299 7,000 -871 Level Cleveland Center
Mon 11:12:19 AM 41.3881 -81.7314 55° Northeast 259 298 6,100 -2,066 Descending Cleveland Center
Mon 11:12:43 AM 41.4056 -81.6936 58° Northeast 252 290 4,900 -1,935 Descending Cleveland Center
Mon 11:13:21 AM 41.4294 -81.6522 52° Northeast 258 297 4,100 -900 Descending Cleveland Center
Mon 11:13:43 AM 41.4497 -81.6225 48° Northeast 247 284 4,000 -295 Descending Cleveland Center
Mon 11:14:22 AM 41.4783 -81.6353 342° North 231 266 3,800 -492 Descending Cleveland Center
Mon 11:14:44 AM 41.4972 -81.6553 322° Northwest 181 208 3,500 -677 Descending Cleveland Center
Mon 11:15:24 AM 41.5139 -81.6808 311° West 202 232 3,100 -492 Descending Cleveland Center
Mon 11:15:45 AM 41.5025 -81.7119 244° Southwest 171 197 3,000 -194 Descending Cleveland Center
Mon 11:16:26 AM 41.4811 -81.7433 228° Southwest 182 209 2,900 -500 Descending Cleveland Center
Mon 11:16:45 AM 41.4706 -81.7628 234° Southwest 175 201 2,500 -885 Descending Cleveland Center
Mon 11:17:27 AM 41.4517 -81.7911 228° Southwest 173 199 2,000 -689 Descending Cleveland Center
Mon 11:17:46 AM 41.4436 -81.8058 234° Southwest 155 178 1,800 -774 Descending Cleveland Center
Mon 11:18:29 AM 41.4281 -81.8303 230° Southwest 146 168 1,200 -787 Descending Cleveland Center
Mon 11:18:47 AM 41.4192 -81.8436 228° Southwest 133 153 1,000 -387 Descending Cleveland Center
Mon 11:19:31 AM 41.4019 -81.8694 228° Southwest 142 163 800 -273 Descending Cleveland Center

Login

Don't have an account? Register now (free) for customized features, flight alerts, and more!